createdAt,value
2022-08-25T00:00:01.224Z,1.90
2022-08-25T00:01:01.231Z,1.60
2022-08-25T00:02:02.948Z,1.70
2022-08-25T00:03:01.251Z,1.80
2022-08-25T00:04:01.810Z,1.50
2022-08-25T00:05:01.211Z,1.40
2022-08-25T00:06:01.170Z,2.10
2022-08-25T00:07:03.388Z,1.80
2022-08-25T00:08:01.235Z,1.70
2022-08-25T00:09:01.142Z,1.90
2022-08-25T00:10:01.131Z,1.50
2022-08-25T00:11:03.533Z,1.50
2022-08-25T00:12:01.107Z,1.90
2022-08-25T00:13:01.123Z,1.60
2022-08-25T00:14:01.091Z,1.80
2022-08-25T00:15:01.093Z,1.40
2022-08-25T00:16:01.118Z,1.60
2022-08-25T00:17:01.069Z,1.70
2022-08-25T00:18:01.145Z,1.80
2022-08-25T00:19:01.041Z,1.60
2022-08-25T00:20:01.040Z,1.80
2022-08-25T00:21:01.039Z,2.00
2022-08-25T00:22:01.014Z,1.60
2022-08-25T00:23:01.019Z,1.90
2022-08-25T00:24:00.992Z,1.40
2022-08-25T00:25:01.000Z,1.90
2022-08-25T00:26:00.968Z,1.80
2022-08-25T00:27:00.961Z,1.60
2022-08-25T00:28:04.120Z,1.80
2022-08-25T00:29:01.583Z,2.10
2022-08-25T00:30:00.953Z,1.60
2022-08-25T00:31:00.996Z,1.80
2022-08-25T00:32:00.914Z,2.10
2022-08-25T00:33:00.920Z,2.00
2022-08-25T00:34:00.889Z,1.80
2022-08-25T00:35:00.884Z,2.00
2022-08-25T00:36:00.866Z,1.70
2022-08-25T00:37:00.868Z,1.90
2022-08-25T00:38:00.873Z,1.90
2022-08-25T00:39:00.853Z,2.10
2022-08-25T00:40:00.856Z,1.80
2022-08-25T00:41:00.825Z,1.60
2022-08-25T00:42:00.808Z,1.70
2022-08-25T00:43:00.817Z,1.50
2022-08-25T00:44:00.793Z,1.60
2022-08-25T00:45:00.793Z,1.40
2022-08-25T00:46:00.851Z,1.90
2022-08-25T00:47:00.763Z,2.00
2022-08-25T00:48:00.804Z,1.50
2022-08-25T00:49:00.751Z,1.50
2022-08-25T00:50:00.744Z,1.80
2022-08-25T00:51:00.722Z,1.60
2022-08-25T00:52:00.714Z,1.70
2022-08-25T00:53:00.728Z,1.70
2022-08-25T00:54:00.692Z,1.80
2022-08-25T00:55:05.780Z,1.60
2022-08-25T00:56:00.677Z,1.70
2022-08-25T00:57:00.666Z,2.00
2022-08-25T00:58:00.728Z,1.80
2022-08-25T00:59:00.645Z,1.50
2022-08-25T01:00:00.635Z,1.40
2022-08-25T01:01:00.623Z,1.80
2022-08-25T01:02:00.629Z,1.60
2022-08-25T01:03:00.662Z,1.50
2022-08-25T01:04:00.588Z,1.70
2022-08-25T01:05:00.592Z,1.60
2022-08-25T01:06:00.570Z,1.90
2022-08-25T01:07:00.566Z,1.70
2022-08-25T01:08:00.668Z,1.50
2022-08-25T01:09:00.544Z,1.90
2022-08-25T01:10:00.539Z,1.80
2022-08-25T01:11:00.526Z,1.80
2022-08-25T01:12:00.509Z,1.60
2022-08-25T01:13:00.522Z,1.70
2022-08-25T01:14:00.492Z,1.30
2022-08-25T01:15:00.487Z,1.60
2022-08-25T01:16:00.666Z,1.60
2022-08-25T01:17:00.465Z,1.50
2022-08-25T01:18:00.566Z,1.70
2022-08-25T01:19:00.446Z,1.90
2022-08-25T01:20:00.438Z,1.60
2022-08-25T01:21:00.444Z,1.60
2022-08-25T01:22:00.414Z,1.70
2022-08-25T01:23:00.425Z,1.50
2022-08-25T01:24:00.395Z,1.80
2022-08-25T01:25:00.402Z,1.60
2022-08-25T01:26:00.375Z,2.00
2022-08-25T01:27:00.398Z,1.60
2022-08-25T01:28:00.422Z,1.70
2022-08-25T01:29:00.352Z,1.90
2022-08-25T01:30:00.337Z,1.70
2022-08-25T01:31:00.388Z,1.70
2022-08-25T01:32:00.311Z,1.70
2022-08-25T01:33:00.327Z,1.90
2022-08-25T01:34:00.293Z,2.20
2022-08-25T01:35:00.290Z,1.60
2022-08-25T01:36:00.279Z,1.90
2022-08-25T01:37:00.268Z,2.20
2022-08-25T01:38:00.268Z,1.50
2022-08-25T01:39:00.254Z,1.80
2022-08-25T01:40:00.359Z,1.60
2022-08-25T01:41:00.233Z,1.80
2022-08-25T01:42:00.234Z,1.70
2022-08-25T01:43:00.210Z,1.90
2022-08-25T01:44:00.202Z,1.50
2022-08-25T01:45:00.229Z,1.80
2022-08-25T01:46:00.236Z,1.60
2022-08-25T01:47:00.180Z,1.50
2022-08-25T01:48:00.346Z,1.40
2022-08-25T01:49:03.804Z,1.60
2022-08-25T01:50:00.192Z,1.40
2022-08-25T01:51:00.130Z,1.70
2022-08-25T01:52:00.135Z,1.90
2022-08-25T01:53:00.118Z,1.60
2022-08-25T01:54:00.103Z,1.70
2022-08-25T01:55:00.096Z,1.60
2022-08-25T01:56:00.081Z,1.80
2022-08-25T01:57:00.083Z,1.50
2022-08-25T01:58:00.142Z,1.50
2022-08-25T01:59:00.062Z,1.70
2022-08-25T02:00:00.041Z,1.60
2022-08-25T02:01:00.112Z,1.70
2022-08-25T02:02:00.399Z,1.60
2022-08-25T02:03:00.049Z,1.90
2022-08-25T02:04:00.000Z,1.50
2022-08-25T02:05:00.043Z,1.50
2022-08-25T02:06:00.010Z,1.80
2022-08-25T02:07:00.000Z,1.50
2022-08-25T02:08:00.008Z,1.60
2022-08-25T02:08:59.956Z,1.60
2022-08-25T02:10:03.248Z,1.80
2022-08-25T02:10:59.931Z,1.50
2022-08-25T02:11:59.936Z,1.50
2022-08-25T02:12:59.923Z,1.40
2022-08-25T02:13:59.923Z,2.10
2022-08-25T02:14:59.886Z,1.20
2022-08-25T02:15:59.881Z,1.80
2022-08-25T02:16:59.903Z,1.70
2022-08-25T02:17:59.918Z,1.30
2022-08-25T02:18:59.847Z,1.50
2022-08-25T02:19:59.843Z,1.70
2022-08-25T02:20:59.831Z,1.70
2022-08-25T02:21:59.825Z,1.60
2022-08-25T02:22:59.828Z,1.30
2022-08-25T02:23:59.819Z,1.60
2022-08-25T02:24:59.786Z,1.70
2022-08-25T02:25:59.796Z,1.70
2022-08-25T02:26:59.775Z,1.90
2022-08-25T02:27:59.848Z,1.40
2022-08-25T02:28:59.770Z,1.70
2022-08-25T02:29:59.748Z,1.50
2022-08-25T02:31:01.417Z,1.50
2022-08-25T02:31:59.733Z,1.90
2022-08-25T02:32:59.723Z,1.30
2022-08-25T02:34:05.702Z,1.30
2022-08-25T02:34:59.685Z,1.70
2022-08-25T02:35:59.682Z,1.70
2022-08-25T02:37:00.255Z,1.50
2022-08-25T02:38:00.438Z,1.50
2022-08-25T02:38:59.651Z,1.90
2022-08-25T02:39:59.748Z,1.70
2022-08-25T02:40:59.630Z,1.40
2022-08-25T02:41:59.621Z,1.80
2022-08-25T02:42:59.621Z,1.70
2022-08-25T02:43:59.605Z,1.80
2022-08-25T02:44:59.587Z,1.50
2022-08-25T02:45:59.672Z,1.70
2022-08-25T02:46:59.567Z,2.00
2022-08-25T02:47:59.622Z,1.70
2022-08-25T02:48:59.547Z,1.60
2022-08-25T02:49:59.542Z,1.70
2022-08-25T02:50:59.531Z,1.60
2022-08-25T02:51:59.528Z,1.50
2022-08-25T02:52:59.527Z,1.40
2022-08-25T02:53:59.514Z,1.90
2022-08-25T02:54:59.486Z,1.50
2022-08-25T02:55:59.483Z,1.40
2022-08-25T02:56:59.474Z,1.60
2022-08-25T02:57:59.509Z,1.50
2022-08-25T02:58:59.448Z,1.70
2022-08-25T02:59:59.445Z,1.60
2022-08-25T03:00:59.479Z,1.40
2022-08-25T03:01:59.425Z,1.50
2022-08-25T03:02:59.427Z,1.40
2022-08-25T03:03:59.464Z,1.40
2022-08-25T03:04:59.479Z,1.20
2022-08-25T03:05:59.387Z,1.40
2022-08-25T03:06:59.375Z,1.60
2022-08-25T03:07:59.448Z,1.70
2022-08-25T03:08:59.348Z,1.30
2022-08-25T03:09:59.351Z,1.90
2022-08-25T03:10:59.338Z,1.90
2022-08-25T03:11:59.326Z,1.60
2022-08-25T03:12:59.330Z,1.80
2022-08-25T03:13:59.310Z,2.10
2022-08-25T03:14:59.293Z,1.50
2022-08-25T03:15:59.286Z,1.60
2022-08-25T03:16:59.307Z,1.50
2022-08-25T03:17:59.889Z,1.40
2022-08-25T03:18:59.251Z,1.40
2022-08-25T03:19:59.251Z,1.70
2022-08-25T03:20:59.232Z,1.60
2022-08-25T03:21:59.226Z,2.00
2022-08-25T03:22:59.231Z,1.50
2022-08-25T03:23:59.220Z,1.80
2022-08-25T03:24:59.199Z,1.30
2022-08-25T03:26:00.575Z,1.50
2022-08-25T03:26:59.174Z,1.60
2022-08-25T03:27:59.227Z,1.60
2022-08-25T03:28:59.157Z,1.50
2022-08-25T03:29:59.154Z,1.60
2022-08-25T03:30:59.136Z,1.90
2022-08-25T03:31:59.201Z,2.00
2022-08-25T03:32:59.125Z,1.50
2022-08-25T03:33:59.116Z,1.70
2022-08-25T03:34:59.093Z,1.60
2022-08-25T03:35:59.090Z,1.40
2022-08-25T03:36:59.076Z,1.90
2022-08-25T03:37:59.127Z,1.60
2022-08-25T03:39:00.330Z,1.40
2022-08-25T03:39:59.087Z,1.70
2022-08-25T03:40:59.036Z,1.50
2022-08-25T03:41:59.044Z,1.70
2022-08-25T03:42:59.039Z,1.50
2022-08-25T03:43:59.013Z,2.10
2022-08-25T03:44:59.014Z,1.40
2022-08-25T03:45:59.100Z,1.60
2022-08-25T03:46:58.976Z,1.60
2022-08-25T03:47:59.059Z,1.70
2022-08-25T03:48:58.954Z,1.40
2022-08-25T03:49:58.953Z,1.40
2022-08-25T03:50:58.936Z,1.70
2022-08-25T03:51:58.929Z,1.40
2022-08-25T03:52:58.929Z,1.60
2022-08-25T03:53:58.912Z,1.80
2022-08-25T03:54:58.896Z,1.80
2022-08-25T03:55:58.892Z,1.50
2022-08-25T03:56:58.882Z,1.40
2022-08-25T03:57:59.006Z,1.30
2022-08-25T03:58:58.856Z,1.50
2022-08-25T03:59:58.848Z,1.40
2022-08-25T04:00:58.860Z,1.70
2022-08-25T04:01:58.877Z,1.60
2022-08-25T04:02:58.831Z,1.30
2022-08-25T04:03:58.821Z,1.60
2022-08-25T04:04:58.796Z,1.90
2022-08-25T04:05:58.794Z,2.00
2022-08-25T04:06:58.782Z,1.40
2022-08-25T04:07:58.785Z,1.80
2022-08-25T04:08:58.763Z,1.50
2022-08-25T04:09:58.753Z,1.50
2022-08-25T04:10:58.742Z,1.40
2022-08-25T04:11:58.730Z,1.60
2022-08-25T04:12:58.738Z,1.50
2022-08-25T04:13:58.712Z,1.90
2022-08-25T04:14:58.702Z,1.60
2022-08-25T04:15:58.693Z,1.50
2022-08-25T04:16:58.717Z,1.70
2022-08-25T04:17:58.700Z,1.30
2022-08-25T04:18:58.657Z,1.40
2022-08-25T04:19:58.655Z,1.40
2022-08-25T04:20:58.643Z,1.50
2022-08-25T04:21:58.631Z,1.50
2022-08-25T04:22:58.633Z,1.40
2022-08-25T04:23:58.615Z,1.50
2022-08-25T04:24:58.598Z,1.60
2022-08-25T04:25:58.597Z,1.30
2022-08-25T04:26:58.580Z,1.70
2022-08-25T04:27:58.625Z,1.20
2022-08-25T04:28:58.564Z,1.30
2022-08-25T04:29:58.555Z,1.50
2022-08-25T04:30:58.550Z,1.40
2022-08-25T04:31:58.669Z,1.60
2022-08-25T04:32:58.524Z,1.30
2022-08-25T04:33:58.514Z,1.70
2022-08-25T04:34:58.502Z,1.40
2022-08-25T04:35:58.501Z,1.40
2022-08-25T04:36:58.513Z,1.50
2022-08-25T04:37:58.478Z,1.30
2022-08-25T04:38:58.459Z,1.20
2022-08-25T04:39:58.550Z,1.30
2022-08-25T04:40:58.446Z,1.40
2022-08-25T04:41:58.457Z,1.80
2022-08-25T04:42:58.463Z,1.50
2022-08-25T04:43:58.427Z,1.40
2022-08-25T04:44:58.405Z,1.30
2022-08-25T04:45:58.446Z,1.50
2022-08-25T04:46:58.406Z,1.40
2022-08-25T04:47:58.390Z,1.20
2022-08-25T04:48:58.363Z,1.30
2022-08-25T04:49:58.359Z,1.50
2022-08-25T04:50:58.349Z,1.40
2022-08-25T04:51:58.338Z,1.30
2022-08-25T04:52:58.335Z,1.40
2022-08-25T04:53:58.321Z,1.20
2022-08-25T04:54:58.304Z,1.60
2022-08-25T04:56:01.891Z,1.40
2022-08-25T04:56:58.976Z,1.20
2022-08-25T04:57:58.281Z,1.50
2022-08-25T04:58:58.266Z,1.30
2022-08-25T04:59:58.256Z,1.60
2022-08-25T05:00:58.342Z,1.60
2022-08-25T05:01:58.328Z,1.50
2022-08-25T05:02:58.240Z,1.50
2022-08-25T05:03:58.284Z,1.50
2022-08-25T05:04:58.203Z,1.40
2022-08-25T05:05:58.200Z,1.50
2022-08-25T05:06:58.184Z,1.80
2022-08-25T05:07:58.193Z,1.40
2022-08-25T05:08:58.180Z,1.50
2022-08-25T05:09:58.169Z,1.90
2022-08-25T05:10:58.152Z,1.60
2022-08-25T05:11:58.271Z,1.90
2022-08-25T05:12:58.162Z,1.90
2022-08-25T05:13:58.158Z,1.80
2022-08-25T05:14:58.141Z,1.60
2022-08-25T05:15:58.293Z,1.90
2022-08-25T05:16:58.135Z,1.60
2022-08-25T05:17:58.114Z,2.40
2022-08-25T05:18:58.104Z,1.70
2022-08-25T05:19:58.096Z,2.30
2022-08-25T05:20:58.048Z,1.60
2022-08-25T05:21:58.326Z,2.30
2022-08-25T05:22:58.026Z,1.90
2022-08-25T05:23:58.021Z,1.80
2022-08-25T05:24:58.035Z,2.10
2022-08-25T05:25:57.999Z,1.80
2022-08-25T05:26:58.018Z,2.00
2022-08-25T05:27:57.979Z,2.00
2022-08-25T05:28:57.969Z,2.10
2022-08-25T05:29:57.956Z,1.90
2022-08-25T05:30:57.953Z,1.90
2022-08-25T05:31:57.997Z,2.10
2022-08-25T05:32:57.937Z,1.70
2022-08-25T05:33:57.920Z,2.20
2022-08-25T05:34:57.907Z,1.90
2022-08-25T05:35:57.905Z,1.90
2022-08-25T05:36:57.915Z,1.90
2022-08-25T05:37:57.877Z,1.90
2022-08-25T05:38:57.869Z,2.00
2022-08-25T05:39:57.972Z,2.10
2022-08-25T05:40:57.844Z,2.00
2022-08-25T05:41:57.859Z,2.20
2022-08-25T05:42:57.840Z,1.70
2022-08-25T05:43:57.819Z,1.80
2022-08-25T05:44:57.805Z,2.00
2022-08-25T05:45:57.910Z,1.80
2022-08-25T05:46:57.800Z,1.90
2022-08-25T05:47:57.781Z,1.80
2022-08-25T05:48:57.768Z,1.80
2022-08-25T05:49:57.781Z,2.00
2022-08-25T05:50:57.745Z,2.10
2022-08-25T05:51:57.766Z,2.20
2022-08-25T05:52:57.725Z,2.60
2022-08-25T05:53:57.722Z,2.10
2022-08-25T05:54:57.709Z,2.20
2022-08-25T05:55:57.708Z,2.00
2022-08-25T05:56:57.707Z,2.20
2022-08-25T05:57:57.678Z,2.00
2022-08-25T05:58:57.678Z,1.90
2022-08-25T05:59:57.662Z,2.00
2022-08-25T06:00:57.956Z,2.20
2022-08-25T06:01:57.649Z,2.20
2022-08-25T06:02:57.647Z,2.10
2022-08-25T06:03:57.671Z,2.00
2022-08-25T06:04:57.620Z,2.20
2022-08-25T06:05:57.604Z,1.80
2022-08-25T06:06:57.616Z,2.20
2022-08-25T06:07:57.584Z,1.80
2022-08-25T06:08:57.576Z,2.50
2022-08-25T06:09:57.564Z,2.10
2022-08-25T06:10:57.571Z,2.00
2022-08-25T06:11:57.544Z,2.00
2022-08-25T06:12:57.545Z,2.20
2022-08-25T06:13:57.523Z,2.10
2022-08-25T06:14:57.533Z,1.80
2022-08-25T06:15:57.576Z,1.90
2022-08-25T06:16:57.498Z,2.20
2022-08-25T06:18:00.865Z,1.90
2022-08-25T06:18:57.480Z,2.00
2022-08-25T06:19:57.464Z,2.20
2022-08-25T06:20:57.484Z,2.00
2022-08-25T06:21:57.444Z,2.40
2022-08-25T06:22:57.437Z,2.20
2022-08-25T06:23:57.421Z,2.10
2022-08-25T06:24:57.420Z,2.10
2022-08-25T06:25:57.410Z,1.90
2022-08-25T06:26:57.415Z,1.80
2022-08-25T06:27:57.381Z,2.30
2022-08-25T06:28:57.375Z,1.90
2022-08-25T06:29:57.362Z,2.20
2022-08-25T06:30:57.398Z,2.00
2022-08-25T06:31:57.461Z,1.80
2022-08-25T06:32:57.336Z,1.80
2022-08-25T06:33:57.324Z,1.80
2022-08-25T06:34:57.316Z,1.80
2022-08-25T06:35:57.316Z,2.00
2022-08-25T06:36:57.308Z,1.60
2022-08-25T06:37:57.285Z,1.80
2022-08-25T06:38:57.290Z,1.60
2022-08-25T06:39:57.324Z,1.60
2022-08-25T06:40:57.275Z,1.90
2022-08-25T06:41:57.266Z,2.00
2022-08-25T06:42:57.261Z,1.70
2022-08-25T06:44:04.936Z,1.50
2022-08-25T06:44:57.237Z,1.70
2022-08-25T06:45:57.209Z,1.80
2022-08-25T06:46:57.278Z,2.00
2022-08-25T06:47:57.186Z,1.90
2022-08-25T06:48:57.175Z,1.70
2022-08-25T06:49:57.189Z,1.90
2022-08-25T06:50:57.154Z,1.80
2022-08-25T06:51:57.157Z,1.80
2022-08-25T06:52:57.163Z,1.80
2022-08-25T06:53:57.122Z,1.70
2022-08-25T06:54:57.114Z,1.60
2022-08-25T06:55:57.099Z,1.90
2022-08-25T06:56:57.106Z,1.80
2022-08-25T06:57:57.102Z,1.50
2022-08-25T06:58:57.080Z,1.60
2022-08-25T06:59:57.060Z,1.80
2022-08-25T07:00:57.093Z,1.60
2022-08-25T07:01:57.092Z,2.00
2022-08-25T07:02:57.042Z,1.70
2022-08-25T07:03:57.036Z,1.50
2022-08-25T07:04:57.015Z,1.60
2022-08-25T07:05:57.025Z,1.60
2022-08-25T07:06:57.027Z,1.60
2022-08-25T07:07:56.980Z,1.70
2022-08-25T07:08:56.975Z,1.50
2022-08-25T07:09:56.974Z,1.60
2022-08-25T07:10:56.958Z,1.70
2022-08-25T07:11:56.959Z,1.50
2022-08-25T07:12:56.933Z,1.60
2022-08-25T07:13:56.931Z,1.70
2022-08-25T07:15:17.288Z,1.50
2022-08-25T07:15:56.937Z,1.70
2022-08-25T07:16:56.908Z,1.50
2022-08-25T07:17:56.876Z,1.40
2022-08-25T07:18:56.874Z,1.50
2022-08-25T07:19:57.657Z,1.50
2022-08-25T07:20:56.875Z,1.40
2022-08-25T07:21:56.851Z,1.60
2022-08-25T07:22:56.840Z,1.60
2022-08-25T07:23:56.821Z,1.40
2022-08-25T07:24:56.821Z,1.60
2022-08-25T07:25:56.796Z,1.60
2022-08-25T07:26:56.812Z,1.50
2022-08-25T07:27:58.878Z,1.40
2022-08-25T07:28:56.774Z,1.60
2022-08-25T07:29:56.758Z,1.40
2022-08-25T07:30:56.752Z,1.50
2022-08-25T07:31:56.884Z,1.80
2022-08-25T07:32:56.735Z,1.60
2022-08-25T07:33:56.718Z,1.80
2022-08-25T07:34:56.711Z,1.50
2022-08-25T07:35:56.701Z,1.50
2022-08-25T07:36:56.706Z,1.60
2022-08-25T07:37:56.680Z,1.60
2022-08-25T07:38:56.671Z,1.30
2022-08-25T07:39:56.699Z,1.40
2022-08-25T07:40:57.074Z,1.50
2022-08-25T07:41:56.657Z,1.30
2022-08-25T07:42:56.634Z,1.50
2022-08-25T07:43:56.621Z,1.50
2022-08-25T07:44:56.620Z,1.50
2022-08-25T07:45:56.604Z,1.40
2022-08-25T07:46:56.683Z,1.30
2022-08-25T07:47:56.581Z,1.60
2022-08-25T07:48:56.578Z,1.60
2022-08-25T07:49:56.560Z,1.60
2022-08-25T07:50:56.558Z,1.60
2022-08-25T07:52:05.591Z,1.30
2022-08-25T07:52:56.544Z,1.50
2022-08-25T07:53:56.524Z,1.40
2022-08-25T07:54:56.519Z,1.30
2022-08-25T07:55:56.550Z,1.50
2022-08-25T07:56:56.512Z,1.40
2022-08-25T07:57:57.367Z,1.40
2022-08-25T07:58:56.482Z,1.40
2022-08-25T07:59:56.460Z,1.40
2022-08-25T08:00:56.461Z,1.50
2022-08-25T08:01:56.468Z,1.70
2022-08-25T08:02:56.583Z,1.40
2022-08-25T08:03:59.287Z,1.50
2022-08-25T08:04:56.425Z,1.50
2022-08-25T08:05:56.406Z,1.60
2022-08-25T08:06:56.412Z,1.60
2022-08-25T08:07:56.406Z,1.70
2022-08-25T08:08:57.797Z,1.70
2022-08-25T08:10:32.890Z,1.50
2022-08-25T08:11:04.671Z,1.50
2022-08-25T08:11:56.379Z,1.60
2022-08-25T08:12:56.343Z,1.40
2022-08-25T08:13:56.328Z,1.50
2022-08-25T08:14:56.319Z,1.60
2022-08-25T08:15:56.368Z,1.80
2022-08-25T08:16:56.321Z,1.50
2022-08-25T08:17:56.286Z,1.40
2022-08-25T08:18:56.279Z,1.60
2022-08-25T08:19:56.267Z,1.50
2022-08-25T08:20:56.260Z,1.60
2022-08-25T08:21:56.260Z,1.70
2022-08-25T08:22:56.248Z,1.60
2022-08-25T08:23:58.896Z,1.60
2022-08-25T08:24:56.959Z,1.70
2022-08-25T08:25:56.211Z,1.50
2022-08-25T08:26:58.919Z,1.60
2022-08-25T08:27:56.193Z,1.60
2022-08-25T08:28:56.183Z,1.80
2022-08-25T08:29:56.175Z,1.70
2022-08-25T08:30:56.209Z,1.60
2022-08-25T08:31:56.211Z,1.60
2022-08-25T08:33:12.381Z,1.60
2022-08-25T08:33:56.137Z,1.50
2022-08-25T08:34:56.118Z,1.50
2022-08-25T08:35:56.123Z,1.70
2022-08-25T08:36:56.115Z,1.50
2022-08-25T08:37:56.088Z,1.60
2022-08-25T08:38:56.092Z,1.70
2022-08-25T08:39:56.152Z,1.70
2022-08-25T08:40:56.065Z,1.60
2022-08-25T08:42:10.873Z,1.30
2022-08-25T08:42:56.051Z,1.60
2022-08-25T08:43:56.165Z,1.50
2022-08-25T08:44:58.086Z,1.70
2022-08-25T08:45:56.012Z,1.50
2022-08-25T08:46:56.718Z,1.60
2022-08-25T08:47:55.998Z,1.40
2022-08-25T08:48:55.987Z,1.40
2022-08-25T08:49:55.970Z,1.60
2022-08-25T08:50:55.964Z,1.90
2022-08-25T08:51:55.978Z,1.30
2022-08-25T08:52:55.947Z,1.50
2022-08-25T08:53:57.206Z,1.40
2022-08-25T08:54:55.975Z,1.50
2022-08-25T08:55:55.909Z,1.40
2022-08-25T08:56:55.925Z,1.40
2022-08-25T08:57:55.918Z,1.30
2022-08-25T08:58:55.891Z,1.30
2022-08-25T08:59:55.879Z,1.40
2022-08-25T09:00:55.876Z,1.40
2022-08-25T09:01:55.923Z,1.30
2022-08-25T09:02:55.895Z,1.50
2022-08-25T09:03:55.848Z,1.60
2022-08-25T09:04:55.832Z,1.30
2022-08-25T09:05:55.818Z,1.30
2022-08-25T09:06:55.841Z,1.30
2022-08-25T09:07:55.797Z,1.70
2022-08-25T09:08:55.789Z,1.50
2022-08-25T09:09:55.782Z,1.40
2022-08-25T09:10:55.778Z,1.30
2022-08-25T09:11:55.769Z,1.50
2022-08-25T09:12:55.754Z,1.40
2022-08-25T09:13:55.808Z,1.40
2022-08-25T09:14:57.694Z,1.60
2022-08-25T09:15:57.433Z,1.60
2022-08-25T09:16:55.734Z,1.30
2022-08-25T09:17:55.734Z,1.60
2022-08-25T09:18:55.696Z,1.30
2022-08-25T09:19:55.678Z,1.50
2022-08-25T09:20:55.736Z,1.60
2022-08-25T09:21:55.711Z,1.40
2022-08-25T09:22:55.653Z,1.60
2022-08-25T09:23:55.686Z,1.60
2022-08-25T09:24:55.632Z,1.50
2022-08-25T09:25:55.624Z,1.50
2022-08-25T09:26:55.695Z,1.50
2022-08-25T09:27:55.664Z,1.30
2022-08-25T09:28:55.687Z,1.40
2022-08-25T09:29:55.578Z,1.40
2022-08-25T09:30:55.649Z,1.30
2022-08-25T09:31:55.586Z,1.20
2022-08-25T09:32:55.568Z,1.30
2022-08-25T09:33:55.537Z,1.10
2022-08-25T09:34:55.532Z,1.20
2022-08-25T09:35:55.535Z,1.10
2022-08-25T09:36:55.514Z,1.10
2022-08-25T09:37:55.517Z,1.10
2022-08-25T09:38:55.492Z,1.10
2022-08-25T09:39:55.515Z,1.00
2022-08-25T09:40:55.576Z,1.20
2022-08-25T09:41:55.461Z,1.00
2022-08-25T09:42:57.884Z,1.20
2022-08-25T09:43:55.437Z,1.20
2022-08-25T09:44:55.433Z,1.00
2022-08-25T09:45:55.475Z,0.90
2022-08-25T09:46:55.418Z,1.00
2022-08-25T09:47:55.420Z,1.10
2022-08-25T09:48:56.122Z,1.30
2022-08-25T09:49:55.386Z,1.60
2022-08-25T09:50:55.400Z,0.90
2022-08-25T09:51:55.361Z,1.00
2022-08-25T09:52:55.377Z,1.00
2022-08-25T09:53:55.338Z,0.90
2022-08-25T09:54:55.338Z,1.20
2022-08-25T09:55:59.940Z,1.10
2022-08-25T09:56:55.321Z,1.10
2022-08-25T09:57:55.315Z,1.20
2022-08-25T09:58:55.300Z,1.30
2022-08-25T09:59:57.591Z,1.40
2022-08-25T10:00:55.275Z,1.10
2022-08-25T10:01:55.352Z,1.10
2022-08-25T10:02:55.255Z,1.10
2022-08-25T10:03:55.301Z,1.00
2022-08-25T10:04:55.281Z,0.80
2022-08-25T10:05:56.250Z,1.10
2022-08-25T10:06:55.229Z,1.30
2022-08-25T10:07:55.207Z,1.20
2022-08-25T10:08:55.198Z,1.00
2022-08-25T10:09:55.185Z,1.20
2022-08-25T10:10:55.179Z,1.10
2022-08-25T10:11:57.503Z,1.10
2022-08-25T10:12:55.158Z,0.90
2022-08-25T10:13:55.148Z,1.10
2022-08-25T10:14:55.141Z,1.10
2022-08-25T10:15:55.194Z,1.00
2022-08-25T10:16:55.131Z,1.10
2022-08-25T10:17:55.106Z,0.90
2022-08-25T10:18:55.103Z,1.20
2022-08-25T10:19:55.082Z,0.90
2022-08-25T10:20:55.069Z,1.00
2022-08-25T10:21:55.087Z,1.30
2022-08-25T10:22:55.048Z,1.10
2022-08-25T10:23:55.054Z,1.10
2022-08-25T10:24:55.033Z,1.10
2022-08-25T10:25:57.892Z,1.30
2022-08-25T10:26:55.034Z,1.10
2022-08-25T10:27:55.009Z,1.00
2022-08-25T10:28:55.002Z,1.10
2022-08-25T10:29:54.993Z,0.90
2022-08-25T10:30:55.012Z,1.10
2022-08-25T10:31:54.991Z,1.50
2022-08-25T10:32:54.973Z,1.40
2022-08-25T10:33:54.944Z,1.10
2022-08-25T10:34:54.933Z,0.90
2022-08-25T10:35:54.930Z,1.00
2022-08-25T10:36:56.082Z,1.00
2022-08-25T10:37:54.911Z,1.20
2022-08-25T10:38:54.890Z,1.30
2022-08-25T10:39:55.319Z,1.30
2022-08-25T10:40:54.870Z,1.20
2022-08-25T10:41:54.893Z,1.00
2022-08-25T10:42:54.855Z,0.90
2022-08-25T10:43:54.842Z,1.00
2022-08-25T10:44:54.836Z,1.00
2022-08-25T10:45:54.897Z,1.00
2022-08-25T10:46:54.831Z,1.30
2022-08-25T10:47:54.816Z,1.00
2022-08-25T10:48:54.794Z,0.80
2022-08-25T10:49:54.793Z,1.20
2022-08-25T10:50:54.772Z,1.30
2022-08-25T10:51:54.782Z,1.10
2022-08-25T10:52:54.762Z,1.30
2022-08-25T10:53:54.745Z,1.20
2022-08-25T10:54:54.865Z,1.00
2022-08-25T10:55:54.736Z,1.00
2022-08-25T10:56:57.434Z,1.10
2022-08-25T10:57:54.702Z,1.20
2022-08-25T10:58:54.699Z,1.10
2022-08-25T10:59:54.681Z,1.20
2022-08-25T11:00:54.820Z,1.50
2022-08-25T11:01:54.715Z,1.00
2022-08-25T11:02:54.650Z,1.30
2022-08-25T11:03:54.720Z,1.20
2022-08-25T11:04:54.769Z,1.20
2022-08-25T11:05:54.622Z,1.60
2022-08-25T11:06:54.910Z,1.40
2022-08-25T11:07:54.600Z,1.20
2022-08-25T11:08:54.584Z,1.30
2022-08-25T11:09:54.587Z,1.20
2022-08-25T11:10:54.568Z,0.70
2022-08-25T11:11:54.577Z,0.70
2022-08-25T11:12:54.545Z,1.00
2022-08-25T11:13:54.552Z,1.10
2022-08-25T11:14:54.527Z,1.00
2022-08-25T11:16:16.115Z,1.00
2022-08-25T11:16:54.568Z,1.20
2022-08-25T11:17:54.509Z,1.10
2022-08-25T11:18:54.489Z,1.10
2022-08-25T11:19:54.478Z,1.10
2022-08-25T11:20:54.472Z,1.00
2022-08-25T11:21:54.478Z,1.40
2022-08-25T11:22:54.445Z,1.00
2022-08-25T11:23:54.446Z,1.10
2022-08-25T11:24:54.426Z,1.40
2022-08-25T11:25:54.423Z,0.90
2022-08-25T11:26:54.429Z,1.20
2022-08-25T11:27:54.402Z,1.00
2022-08-25T11:28:54.381Z,1.10
2022-08-25T11:29:54.382Z,1.40
2022-08-25T11:30:54.405Z,1.30
2022-08-25T11:31:54.380Z,1.00
2022-08-25T11:32:54.343Z,1.30
2022-08-25T11:33:54.339Z,1.20
2022-08-25T11:34:54.325Z,1.30
2022-08-25T11:35:54.322Z,1.10
2022-08-25T11:36:54.318Z,1.30
2022-08-25T11:37:54.303Z,1.30
2022-08-25T11:38:54.307Z,1.40
2022-08-25T11:39:54.326Z,1.20
2022-08-25T11:40:54.263Z,1.00
2022-08-25T11:41:54.269Z,1.10
2022-08-25T11:42:54.244Z,1.00
2022-08-25T11:43:54.240Z,1.00
2022-08-25T11:44:54.945Z,1.20
2022-08-25T11:45:54.800Z,0.90
2022-08-25T11:46:54.230Z,1.30
2022-08-25T11:47:54.203Z,1.50
2022-08-25T11:48:54.188Z,1.10
2022-08-25T11:49:54.177Z,0.80
2022-08-25T11:50:54.166Z,1.10
2022-08-25T11:51:54.172Z,0.90
2022-08-25T11:52:54.145Z,1.30
2022-08-25T11:53:54.146Z,0.90
2022-08-25T11:54:54.127Z,1.10
2022-08-25T11:55:54.132Z,1.40
2022-08-25T11:56:54.114Z,1.00
2022-08-25T11:57:54.421Z,0.90
2022-08-25T11:58:54.081Z,1.50
2022-08-25T11:59:54.332Z,1.10
2022-08-25T12:00:54.070Z,1.00
2022-08-25T12:01:54.071Z,1.00
2022-08-25T12:02:55.090Z,1.10
2022-08-25T12:03:54.193Z,1.10
2022-08-25T12:04:54.207Z,1.30
2022-08-25T12:05:54.017Z,1.20
2022-08-25T12:06:54.020Z,1.20
2022-08-25T12:07:53.998Z,1.10
2022-08-25T12:08:53.982Z,1.30
2022-08-25T12:09:53.981Z,1.30
2022-08-25T12:10:53.966Z,1.10
2022-08-25T12:11:53.975Z,1.20
2022-08-25T12:12:53.938Z,1.50
2022-08-25T12:13:53.936Z,1.20
2022-08-25T12:14:53.922Z,1.30
2022-08-25T12:15:53.919Z,1.30
2022-08-25T12:16:53.994Z,1.00
2022-08-25T12:17:53.897Z,1.10
2022-08-25T12:18:53.881Z,0.90
2022-08-25T12:19:53.877Z,1.40
2022-08-25T12:20:53.869Z,1.20
2022-08-25T12:21:53.872Z,1.20
2022-08-25T12:22:53.844Z,1.20
2022-08-25T12:23:53.835Z,1.30
2022-08-25T12:24:53.826Z,1.10
2022-08-25T12:25:53.816Z,1.70
2022-08-25T12:26:53.817Z,1.20
2022-08-25T12:27:53.800Z,1.30
2022-08-25T12:28:53.781Z,1.30
2022-08-25T12:29:53.791Z,1.50
2022-08-25T12:30:53.844Z,1.20
2022-08-25T12:31:53.768Z,1.30
2022-08-25T12:32:53.741Z,1.20
2022-08-25T12:33:53.746Z,1.20
2022-08-25T12:34:53.728Z,1.20
2022-08-25T12:35:53.713Z,1.10
2022-08-25T12:36:53.719Z,1.10
2022-08-25T12:37:53.699Z,1.00
2022-08-25T12:38:53.682Z,1.20
2022-08-25T12:39:53.731Z,1.50
2022-08-25T12:40:53.675Z,1.10
2022-08-25T12:41:53.697Z,1.10
2022-08-25T12:42:53.641Z,1.20
2022-08-25T12:43:53.635Z,1.40
2022-08-25T12:44:53.623Z,1.20
2022-08-25T12:45:53.679Z,1.10
2022-08-25T12:46:53.618Z,1.10
2022-08-25T12:47:53.595Z,1.20
2022-08-25T12:48:53.583Z,1.20
2022-08-25T12:49:53.570Z,1.20
2022-08-25T12:50:53.561Z,1.00
2022-08-25T12:51:53.567Z,1.20
2022-08-25T12:52:53.537Z,1.20
2022-08-25T12:53:53.535Z,1.00
2022-08-25T12:54:53.516Z,1.10
2022-08-25T12:55:53.518Z,1.00
2022-08-25T12:56:53.512Z,1.00
2022-08-25T12:57:53.504Z,1.40
2022-08-25T12:59:01.110Z,1.10
2022-08-25T12:59:53.477Z,1.20
2022-08-25T13:00:55.070Z,1.00
2022-08-25T13:01:53.608Z,1.20
2022-08-25T13:02:53.658Z,1.20
2022-08-25T13:03:53.434Z,1.00
2022-08-25T13:04:53.414Z,1.20
2022-08-25T13:05:53.408Z,1.10
2022-08-25T13:06:53.413Z,1.30
2022-08-25T13:07:53.411Z,1.30
2022-08-25T13:08:53.387Z,1.10
2022-08-25T13:09:53.371Z,1.10
2022-08-25T13:10:53.362Z,1.20
2022-08-25T13:11:53.372Z,1.20
2022-08-25T13:12:53.397Z,1.20
2022-08-25T13:13:53.335Z,1.10
2022-08-25T13:14:53.318Z,1.00
2022-08-25T13:15:53.328Z,1.10
2022-08-25T13:16:53.377Z,1.20
2022-08-25T13:17:53.290Z,1.20